Time;durP1;ratioP1;P1;durP2;ratioP2;P2;SDS_P1;SDS_P2;PMS_P1;PMS_P2;Temp;Humidity;BMP_temperature;BMP_pressure;BME280_temperature;BME280_humidity;BME280_pressure;Samples;Min_cycle;Max_cycle;Signal;HPM_P1;HPM_P2
2023/07/27 00:00:40;;;;;;;8.35;6.05;;;10.50;99.90;;;;;;5093129;28;20021;-86
2023/07/27 00:03:06;;;;;;;7.55;6.25;;;10.50;99.90;;;;;;5062038;28;20090;-86
2023/07/27 00:05:32;;;;;;;10.63;6.55;;;10.50;99.90;;;;;;5079997;28;20024;-85
2023/07/27 00:07:58;;;;;;;9.75;6.50;;;10.50;99.90;;;;;;5076134;28;20050;-85
2023/07/27 00:10:24;;;;;;;13.57;7.03;;;10.50;99.90;;;;;;5065026;28;20043;-86
2023/07/27 00:12:50;;;;;;;9.13;6.78;;;10.50;99.90;;;;;;5054063;28;20037;-85
2023/07/27 00:15:16;;;;;;;7.97;5.93;;;10.50;99.90;;;;;;5073690;28;20032;-85
2023/07/27 00:17:42;;;;;;;6.90;6.00;;;10.40;99.90;;;;;;5073323;28;20044;-85
2023/07/27 00:20:09;;;;;;;8.98;6.18;;;10.40;99.90;;;;;;5078756;28;20024;-85
2023/07/27 00:22:34;;;;;;;6.80;5.82;;;10.40;99.90;;;;;;5080101;28;20028;-86
2023/07/27 00:25:00;;;;;;;6.80;5.28;;;10.40;99.90;;;;;;5044294;28;20029;-84
2023/07/27 00:27:26;;;;;;;5.95;5.35;;;10.40;99.90;;;;;;5072187;28;20100;-86
2023/07/27 00:29:52;;;;;;;8.15;5.97;;;10.40;99.90;;;;;;5070818;28;20047;-85
2023/07/27 00:32:17;;;;;;;9.68;6.50;;;10.30;99.90;;;;;;5081486;28;20044;-86
2023/07/27 00:34:43;;;;;;;8.10;6.20;;;10.30;99.90;;;;;;5074412;28;20496;-85
2023/07/27 00:37:09;;;;;;;8.05;6.30;;;10.30;99.90;;;;;;5057578;28;20025;-85
2023/07/27 00:39:35;;;;;;;7.88;6.47;;;10.30;99.90;;;;;;5066139;28;20500;-86
2023/07/27 00:42:01;;;;;;;8.82;6.63;;;10.30;99.90;;;;;;5028512;28;20047;-86
2023/07/27 00:44:26;;;;;;;7.95;5.55;;;10.30;99.90;;;;;;5072698;28;20448;-84
2023/07/27 00:46:52;;;;;;;9.27;6.22;;;10.20;99.90;;;;;;5056928;28;20051;-86
2023/07/27 00:49:19;;;;;;;8.75;6.47;;;10.20;99.90;;;;;;5082250;28;20432;-86
2023/07/27 00:51:45;;;;;;;8.95;6.25;;;10.20;99.90;;;;;;5078432;28;20032;-85
2023/07/27 00:54:12;;;;;;;8.05;6.65;;;10.20;99.90;;;;;;5077865;28;20067;-85
2023/07/27 00:56:39;;;;;;;9.48;6.57;;;10.20;99.90;;;;;;5075901;28;20086;-86
2023/07/27 00:59:06;;;;;;;7.65;6.30;;;10.20;99.90;;;;;;5060931;28;20052;-85
2023/07/27 01:01:32;;;;;;;7.88;6.22;;;10.20;99.90;;;;;;5064621;28;20043;-84
2023/07/27 01:03:59;;;;;;;9.07;6.68;;;10.20;99.90;;;;;;5080034;28;20032;-85
2023/07/27 01:06:25;;;;;;;9.63;6.38;;;10.20;99.90;;;;;;5079530;28;20047;-85
2023/07/27 01:08:52;;;;;;;10.75;6.65;;;10.10;99.90;;;;;;5092073;28;20039;-85
2023/07/27 01:11:28;;;;;;;8.15;5.75;;;10.10;99.90;;;;;;5074420;28;20040;-85
2023/07/27 01:14:25;;;;;;;8.05;6.05;;;10.10;99.90;;;;;;5074113;28;20101;-85
2023/07/27 01:17:22;;;;;;;7.40;5.95;;;10.10;99.90;;;;;;5080781;28;20504;-85
2023/07/27 01:20:27;;;;;;;6.78;5.82;;;10.00;99.90;;;;;;5051497;28;20098;-85
2023/07/27 01:23:15;;;;;;;7.85;6.05;;;10.00;99.90;;;;;;5075434;28;20118;-86
2023/07/27 01:26:16;;;;;;;9.93;5.35;;;10.00;99.90;;;;;;5076825;28;20051;-85
2023/07/27 01:28:54;;;;;;;8.75;6.07;;;10.00;99.90;;;;;;5072797;28;20043;-85
2023/07/27 01:31:32;;;;;;;7.95;6.25;;;9.90;99.90;;;;;;5072372;28;20503;-85
2023/07/27 01:34:06;;;;;;;6.90;5.97;;;10.00;99.90;;;;;;5042943;28;20090;-86
2023/07/27 01:36:40;;;;;;;8.90;6.30;;;9.90;99.90;;;;;;5062892;28;20032;-85
2023/07/27 01:39:10;;;;;;;8.68;6.25;;;9.90;99.90;;;;;;5058419;28;20442;-86
2023/07/27 01:41:37;;;;;;;10.07;6.25;;;9.90;99.90;;;;;;5071825;28;20037;-86
2023/07/27 01:44:05;;;;;;;10.20;6.88;;;9.90;99.90;;;;;;5041939;28;20443;-86
2023/07/27 01:46:32;;;;;;;10.93;6.45;;;10.00;99.90;;;;;;5063453;28;20024;-84
2023/07/27 01:48:59;;;;;;;10.90;7.28;;;10.00;99.90;;;;;;5074057;28;20370;-85
2023/07/27 01:51:26;;;;;;;10.75;6.90;;;10.00;99.90;;;;;;5054313;28;20373;-84
2023/07/27 01:53:54;;;;;;;12.48;7.45;;;10.00;99.90;;;;;;5064146;28;20067;-85
2023/07/27 01:56:22;;;;;;;7.20;6.32;;;10.00;99.90;;;;;;5055178;28;20036;-86
2023/07/27 01:58:49;;;;;;;13.43;8.32;;;10.10;99.90;;;;;;5076652;28;20040;-84
2023/07/27 02:01:16;;;;;;;16.73;8.13;;;10.10;99.90;;;;;;5067200;28;20032;-86
2023/07/27 02:03:42;;;;;;;12.80;8.18;;;10.00;99.90;;;;;;5023920;28;20502;-83
2023/07/27 02:06:11;;;;;;;13.00;8.40;;;10.00;99.90;;;;;;5036681;28;20080;-84
2023/07/27 02:08:37;;;;;;;11.82;8.77;;;10.10;99.90;;;;;;5079032;28;20102;-86
2023/07/27 02:11:05;;;;;;;10.63;8.00;;;10.10;99.90;;;;;;5054860;28;20032;-85
2023/07/27 02:13:53;;;;;;;10.88;7.57;;;10.10;99.90;;;;;;5056834;28;20040;-86
2023/07/27 02:16:36;;;;;;;10.63;7.40;;;10.10;99.90;;;;;;5054950;28;20070;-84
2023/07/27 02:19:04;;;;;;;9.52;8.07;;;10.20;99.90;;;;;;5041146;28;20029;-84
2023/07/27 02:21:35;;;;;;;8.65;7.43;;;10.20;99.90;;;;;;5074105;28;20028;-84
2023/07/27 02:24:02;;;;;;;9.77;7.70;;;10.20;99.90;;;;;;5087768;28;20024;-86
2023/07/27 02:26:28;;;;;;;10.43;7.53;;;10.20;99.90;;;;;;5084606;28;20039;-85
2023/07/27 02:28:56;;;;;;;9.25;7.10;;;10.30;99.90;;;;;;5055673;28;20025;-87
2023/07/27 02:31:23;;;;;;;9.30;7.38;;;10.30;99.90;;;;;;5058140;28;20055;-84
2023/07/27 02:33:49;;;;;;;10.82;7.53;;;10.40;99.90;;;;;;5061126;28;20028;-85
2023/07/27 02:36:16;;;;;;;11.07;6.82;;;10.40;99.90;;;;;;5070961;28;20033;-85
2023/07/27 02:38:42;;;;;;;11.43;7.78;;;10.40;99.90;;;;;;5050663;28;20033;-87
2023/07/27 02:41:11;;;;;;;13.73;8.13;;;10.50;99.90;;;;;;5063618;28;20392;-85
2023/07/27 02:43:39;;;;;;;11.57;7.63;;;10.50;99.90;;;;;;5088607;28;20056;-85
2023/07/27 02:46:08;;;;;;;11.40;7.70;;;10.50;99.90;;;;;;5072243;28;20032;-84
2023/07/27 02:48:34;;;;;;;12.18;8.07;;;10.50;99.90;;;;;;5061166;28;20029;-85
2023/07/27 02:51:00;;;;;;;11.02;7.70;;;10.40;99.90;;;;;;5059804;28;20029;-85
2023/07/27 02:53:25;;;;;;;15.02;7.80;;;10.40;99.90;;;;;;5065064;28;20047;-84
2023/07/27 02:55:58;;;;;;;11.27;8.00;;;10.40;99.90;;;;;;5054338;28;20632;-85
2023/07/27 02:58:25;;;;;;;10.55;7.57;;;10.40;99.90;;;;;;5083339;28;20078;-83
2023/07/27 03:00:54;;;;;;;10.23;7.20;;;10.30;99.90;;;;;;5082139;28;20055;-84
2023/07/27 03:03:20;;;;;;;12.02;7.35;;;10.30;99.90;;;;;;5068514;28;20035;-84
2023/07/27 03:05:47;;;;;;;8.90;8.00;;;10.30;99.90;;;;;;5045163;28;20629;-84
2023/07/27 03:08:15;;;;;;;9.25;7.25;;;10.30;99.90;;;;;;5045553;28;20039;-85
2023/07/27 03:10:42;;;;;;;10.05;7.60;;;10.30;99.90;;;;;;5067507;28;20025;-85
2023/07/27 03:13:07;;;;;;;8.45;7.10;;;10.20;99.90;;;;;;5066607;28;20515;-86
2023/07/27 03:15:39;;;;;;;10.95;7.03;;;10.10;99.90;;;;;;5025003;28;20036;-84
2023/07/27 03:18:05;;;;;;;9.13;7.28;;;10.10;99.90;;;;;;5078472;28;20070;-86
2023/07/27 03:20:40;;;;;;;9.52;7.05;;;10.00;99.90;;;;;;5074680;28;20051;-85
2023/07/27 03:23:10;;;;;;;7.82;5.18;;;10.00;99.90;;;;;;5069224;28;20469;-84
2023/07/27 03:25:37;;;;;;;7.93;5.88;;;10.00;99.90;;;;;;5081539;28;20020;-84
2023/07/27 03:28:05;;;;;;;12.70;6.80;;;10.00;99.90;;;;;;5083633;28;20490;-85
2023/07/27 03:30:32;;;;;;;9.13;6.57;;;10.00;99.90;;;;;;5082425;28;20033;-85
2023/07/27 03:32:57;;;;;;;10.65;6.85;;;9.90;99.90;;;;;;5079577;28;20028;-84
2023/07/27 03:35:23;;;;;;;11.45;7.63;;;9.90;99.90;;;;;;5028888;28;20037;-86
2023/07/27 03:37:50;;;;;;;10.52;7.53;;;9.90;99.90;;;;;;5044412;28;20032;-84
2023/07/27 03:40:17;;;;;;;10.27;8.20;;;9.90;99.90;;;;;;5056565;28;20485;-85
2023/07/27 03:42:43;;;;;;;12.95;8.73;;;9.90;99.90;;;;;;5056686;28;20056;-86
2023/07/27 03:45:10;;;;;;;11.25;7.78;;;9.80;99.90;;;;;;5066227;28;20389;-86
2023/07/27 03:47:35;;;;;;;9.10;7.40;;;9.90;99.90;;;;;;5070762;28;20056;-84
2023/07/27 03:50:01;;;;;;;10.02;7.30;;;9.90;99.90;;;;;;5061974;28;20421;-85
2023/07/27 03:52:27;;;;;;;11.77;8.13;;;9.90;99.90;;;;;;5050284;28;20561;-85
2023/07/27 03:54:53;;;;;;;12.52;8.35;;;9.80;99.90;;;;;;5048245;28;20553;-86
2023/07/27 03:57:19;;;;;;;12.57;8.63;;;9.80;99.90;;;;;;5060008;28;20611;-85
2023/07/27 03:59:45;;;;;;;11.98;8.05;;;9.80;99.90;;;;;;5036351;28;20076;-86
2023/07/27 04:02:10;;;;;;;8.02;7.10;;;9.70;99.90;;;;;;5052608;28;20059;-85
2023/07/27 04:04:36;;;;;;;11.82;8.13;;;9.70;99.90;;;;;;5067585;28;20031;-85
2023/07/27 04:07:02;;;;;;;11.40;8.57;;;9.70;99.90;;;;;;5065985;28;20024;-85
2023/07/27 04:09:28;;;;;;;10.63;8.32;;;9.70;99.90;;;;;;5056944;28;20029;-84
2023/07/27 04:11:54;;;;;;;12.13;8.75;;;9.70;99.90;;;;;;5054596;28;20040;-85
2023/07/27 04:14:20;;;;;;;11.80;8.98;;;9.70;99.90;;;;;;5066742;28;20159;-84
2023/07/27 04:16:45;;;;;;;10.73;8.48;;;9.70;99.90;;;;;;5056844;28;20082;-86
2023/07/27 04:19:11;;;;;;;13.40;9.18;;;9.70;99.90;;;;;;5055021;28;20045;-85
2023/07/27 04:21:37;;;;;;;14.40;10.02;;;9.80;99.90;;;;;;5053132;28;20036;-87
2023/07/27 04:24:03;;;;;;;20.83;10.10;;;9.80;99.90;;;;;;5069991;28;20115;-86
2023/07/27 04:26:29;;;;;;;19.17;10.20;;;9.70;99.90;;;;;;5046946;28;20032;-86
2023/07/27 04:28:55;;;;;;;15.27;10.13;;;9.70;99.90;;;;;;5057948;28;20124;-86
2023/07/27 04:31:20;;;;;;;17.48;10.68;;;9.80;99.90;;;;;;5055108;28;20039;-85
2023/07/27 04:33:46;;;;;;;17.50;11.07;;;9.80;99.90;;;;;;5039085;28;20066;-85
2023/07/27 04:36:12;;;;;;;17.38;11.05;;;9.80;99.90;;;;;;5052100;28;20035;-85
2023/07/27 04:38:38;;;;;;;18.25;11.98;;;9.90;99.90;;;;;;5085888;28;20408;-87
2023/07/27 04:41:07;;;;;;;16.65;11.27;;;9.80;99.90;;;;;;5056111;28;20115;-86
2023/07/27 04:43:33;;;;;;;15.05;10.50;;;9.90;99.90;;;;;;5060066;28;20059;-86
2023/07/27 04:45:58;;;;;;;16.48;11.07;;;9.90;99.90;;;;;;5023153;28;20497;-83
2023/07/27 04:48:24;;;;;;;13.18;10.50;;;9.90;99.90;;;;;;5027831;28;20032;-84
2023/07/27 04:50:53;;;;;;;18.10;10.68;;;9.90;99.90;;;;;;5069051;28;20036;-85
2023/07/27 04:53:19;;;;;;;13.40;10.25;;;10.00;99.90;;;;;;5044692;28;20040;-85
2023/07/27 04:55:46;;;;;;;17.42;10.80;;;10.10;99.90;;;;;;5052348;28;20466;-84
2023/07/27 04:58:12;;;;;;;14.30;10.43;;;10.10;99.90;;;;;;5071495;28;20024;-83
2023/07/27 05:00:40;;;;;;;14.07;10.30;;;10.20;99.90;;;;;;5067631;28;20025;-83
2023/07/27 05:03:06;;;;;;;12.85;9.77;;;10.30;99.90;;;;;;5059120;28;20032;-84
2023/07/27 05:05:32;;;;;;;14.07;10.40;;;10.40;99.90;;;;;;5072951;28;20044;-84
2023/07/27 05:07:57;;;;;;;12.30;9.90;;;10.40;99.90;;;;;;5073674;28;20100;-83
2023/07/27 05:10:23;;;;;;;12.77;9.70;;;10.40;99.90;;;;;;5065405;28;20078;-83
2023/07/27 05:12:50;;;;;;;12.05;9.27;;;10.50;99.90;;;;;;5046788;28;20032;-85
2023/07/27 05:15:16;;;;;;;18.75;9.98;;;10.60;99.90;;;;;;5070437;28;20041;-84
2023/07/27 05:17:41;;;;;;;16.48;9.65;;;10.60;99.90;;;;;;5054087;28;20059;-84
2023/07/27 05:20:08;;;;;;;14.35;9.98;;;10.70;99.90;;;;;;5053667;28;20029;-82
2023/07/27 05:22:34;;;;;;;13.13;9.38;;;10.60;99.90;;;;;;5081081;28;20399;-83
2023/07/27 05:24:59;;;;;;;15.55;9.30;;;10.60;99.90;;;;;;5071370;28;20029;-83
2023/07/27 05:27:26;;;;;;;15.05;9.20;;;10.70;99.90;;;;;;5046875;28;20466;-84
2023/07/27 05:29:51;;;;;;;12.95;9.50;;;10.70;99.90;;;;;;5058907;28;20147;-83
2023/07/27 05:32:17;;;;;;;11.68;8.60;;;10.80;99.90;;;;;;5084950;28;20091;-83
2023/07/27 05:34:43;;;;;;;11.80;8.63;;;10.80;99.90;;;;;;5088809;28;20032;-83
2023/07/27 05:37:08;;;;;;;14.10;9.38;;;10.80;99.90;;;;;;5078840;28;20039;-84
2023/07/27 05:39:34;;;;;;;11.77;9.07;;;10.80;99.90;;;;;;5062327;28;20062;-84
2023/07/27 05:42:00;;;;;;;9.90;8.27;;;10.80;99.90;;;;;;5037181;28;20078;-83
2023/07/27 05:44:25;;;;;;;11.23;8.63;;;10.80;99.90;;;;;;5082893;28;20033;-82
2023/07/27 05:46:56;;;;;;;10.30;9.20;;;10.80;99.90;;;;;;5073691;28;20032;-83
2023/07/27 05:49:22;;;;;;;13.30;8.68;;;10.90;99.90;;;;;;5072197;28;20036;-83
2023/07/27 05:51:47;;;;;;;11.05;9.35;;;10.90;99.90;;;;;;5075145;28;20043;-85
2023/07/27 05:54:13;;;;;;;11.80;9.40;;;10.90;99.90;;;;;;5065319;28;20072;-85
2023/07/27 05:56:40;;;;;;;12.05;9.60;;;11.00;99.90;;;;;;5072235;28;20101;-85
2023/07/27 05:59:06;;;;;;;13.10;9.18;;;11.10;99.90;;;;;;5059847;28;20120;-85
2023/07/27 06:01:32;;;;;;;11.77;9.52;;;11.10;99.90;;;;;;5057267;28;20048;-84
2023/07/27 06:04:09;;;;;;;11.55;9.48;;;11.20;99.90;;;;;;5075958;28;20051;-84
2023/07/27 06:06:35;;;;;;;10.57;8.98;;;11.30;99.90;;;;;;5056544;28;20442;-86
2023/07/27 06:09:02;;;;;;;11.85;9.32;;;11.40;99.90;;;;;;5068321;28;20107;-84
2023/07/27 06:11:28;;;;;;;10.65;9.55;;;11.30;99.90;;;;;;5057446;28;20056;-85
2023/07/27 06:13:54;;;;;;;13.05;9.70;;;11.30;99.90;;;;;;5091230;28;20510;-84
2023/07/27 06:16:20;;;;;;;11.65;9.88;;;11.20;99.90;;;;;;5046898;28;20048;-84
2023/07/27 06:18:46;;;;;;;11.50;10.30;;;11.20;99.90;;;;;;5047185;28;20082;-85
2023/07/27 06:21:12;;;;;;;12.30;10.48;;;11.30;99.90;;;;;;5064345;28;20029;-86
2023/07/27 06:23:37;;;;;;;11.52;10.32;;;11.30;99.90;;;;;;5032718;28;20032;-85
2023/07/27 06:26:03;;;;;;;13.23;10.77;;;11.30;99.90;;;;;;5065389;28;20036;-85
2023/07/27 06:28:29;;;;;;;14.02;10.45;;;11.40;99.90;;;;;;5035923;28;20473;-83
2023/07/27 06:30:54;;;;;;;12.77;9.55;;;11.30;99.90;;;;;;5030792;28;20035;-86
2023/07/27 06:33:20;;;;;;;13.38;10.23;;;11.30;99.90;;;;;;5054602;28;20127;-85
2023/07/27 06:35:46;;;;;;;15.13;11.27;;;11.20;99.90;;;;;;5053171;28;20032;-85
2023/07/27 06:38:11;;;;;;;16.23;12.00;;;11.10;99.90;;;;;;5058662;28;20033;-85
2023/07/27 06:40:37;;;;;;;16.75;11.65;;;11.10;99.90;;;;;;5065876;28;20031;-85
2023/07/27 06:43:03;;;;;;;20.45;12.32;;;11.10;99.90;;;;;;5053104;28;20072;-85
2023/07/27 06:45:29;;;;;;;17.92;13.10;;;11.10;99.90;;;;;;5070992;28;20043;-84
2023/07/27 06:47:54;;;;;;;16.90;12.10;;;11.20;99.90;;;;;;5054804;28;20032;-86
2023/07/27 06:50:20;;;;;;;16.85;13.63;;;11.30;99.90;;;;;;5059281;28;20067;-84
2023/07/27 06:52:46;;;;;;;20.35;13.23;;;11.50;99.90;;;;;;5063515;28;20060;-84
2023/07/27 06:55:13;;;;;;;18.15;13.57;;;11.60;99.90;;;;;;5050408;28;20036;-85
2023/07/27 06:57:39;;;;;;;16.35;12.75;;;11.70;99.90;;;;;;5063051;28;20036;-86
2023/07/27 07:00:06;;;;;;;24.48;15.75;;;11.80;99.90;;;;;;5063233;28;20048;-84
2023/07/27 07:02:31;;;;;;;22.58;15.88;;;11.90;99.90;;;;;;5063301;28;20123;-84
2023/07/27 07:04:57;;;;;;;21.35;13.90;;;12.30;99.90;;;;;;5061007;28;20032;-84
2023/07/27 07:07:23;;;;;;;19.13;13.23;;;12.40;99.90;;;;;;5069635;28;20032;-85
2023/07/27 07:09:54;;;;;;;15.25;12.50;;;12.40;99.90;;;;;;5063168;28;20028;-84
2023/07/27 07:12:22;;;;;;;13.68;11.63;;;12.40;99.90;;;;;;5048619;28;20033;-84
2023/07/27 07:14:47;;;;;;;15.48;11.65;;;12.50;99.90;;;;;;5048522;28;20052;-83
2023/07/27 07:17:13;;;;;;;14.25;11.23;;;12.60;99.90;;;;;;5044305;28;20126;-85
2023/07/27 07:19:39;;;;;;;13.90;11.50;;;12.70;99.90;;;;;;5059151;28;20025;-84
2023/07/27 07:22:05;;;;;;;14.23;12.05;;;12.70;99.90;;;;;;5070129;28;20033;-84
2023/07/27 07:24:30;;;;;;;18.25;13.30;;;12.80;99.90;;;;;;5048784;28;20029;-84
2023/07/27 07:26:56;;;;;;;16.63;12.18;;;13.10;99.90;;;;;;5074384;28;20035;-83
2023/07/27 07:29:22;;;;;;;15.50;11.48;;;13.10;99.90;;;;;;5039800;28;20115;-82
2023/07/27 07:31:48;;;;;;;15.10;12.20;;;13.20;99.90;;;;;;5073545;28;20507;-83
2023/07/27 07:34:14;;;;;;;13.82;11.32;;;13.20;99.90;;;;;;5054516;28;20642;-83
2023/07/27 07:36:46;;;;;;;13.95;12.05;;;13.40;99.90;;;;;;5070710;28;20028;-83
2023/07/27 07:39:12;;;;;;;14.23;11.23;;;13.50;99.90;;;;;;5054572;28;20032;-81
2023/07/27 07:41:38;;;;;;;15.65;12.52;;;13.80;99.90;;;;;;5066092;28;20032;-83
2023/07/27 07:44:03;;;;;;;14.07;12.25;;;13.90;99.90;;;;;;5056816;28;20060;-83
2023/07/27 07:46:29;;;;;;;11.38;9.90;;;14.00;99.90;;;;;;5062976;28;20048;-83
2023/07/27 07:48:57;;;;;;;9.82;8.45;;;14.20;99.90;;;;;;5050232;28;20106;-82
2023/07/27 07:51:22;;;;;;;10.00;8.35;;;14.10;99.90;;;;;;5043013;28;20033;-84
2023/07/27 07:53:48;;;;;;;11.93;7.60;;;13.90;99.90;;;;;;5050488;28;20631;-81
2023/07/27 07:56:18;;;;;;;11.48;7.43;;;13.90;99.90;;;;;;5047037;28;20040;-84
2023/07/27 07:58:46;;;;;;;9.50;8.30;;;13.80;99.90;;;;;;5055348;28;20083;-83
2023/07/27 08:01:12;;;;;;;9.15;7.55;;;13.90;99.90;;;;;;5053623;28;20024;-84
2023/07/27 08:03:38;;;;;;;14.07;8.50;;;13.80;99.90;;;;;;5049937;28;20028;-83
2023/07/27 08:06:07;;;;;;;9.18;8.18;;;13.80;99.90;;;;;;5066136;28;20060;-82
2023/07/27 08:08:34;;;;;;;10.25;7.35;;;13.80;99.90;;;;;;5061798;28;20048;-84
2023/07/27 08:11:02;;;;;;;9.32;8.40;;;13.90;99.90;;;;;;5060618;28;20061;-84
2023/07/27 08:13:27;;;;;;;9.05;7.22;;;13.90;99.90;;;;;;5068101;28;20035;-86
2023/07/27 08:15:53;;;;;;;13.25;8.07;;;13.80;99.90;;;;;;5061320;28;20028;-85
2023/07/27 08:18:19;;;;;;;10.77;7.75;;;14.00;99.90;;;;;;5054188;28;20033;-84
2023/07/27 08:20:56;;;;;;;8.57;7.72;;;13.90;99.90;;;;;;5056001;28;20122;-84
2023/07/27 08:23:22;;;;;;;11.23;8.57;;;13.90;99.90;;;;;;5050242;28;20373;-84
2023/07/27 08:25:48;;;;;;;10.02;8.00;;;14.00;99.90;;;;;;5061670;28;20111;-83
2023/07/27 08:28:14;;;;;;;8.40;7.55;;;13.90;99.90;;;;;;5062158;28;20519;-84
2023/07/27 08:30:41;;;;;;;11.48;8.88;;;13.90;99.90;;;;;;5055383;28;20028;-85
2023/07/27 08:33:08;;;;;;;9.60;8.55;;;14.00;99.90;;;;;;5059268;28;20056;-85
2023/07/27 08:35:33;;;;;;;8.90;8.00;;;14.20;99.90;;;;;;5058604;28;20036;-84
2023/07/27 08:37:59;;;;;;;10.80;7.32;;;14.20;99.90;;;;;;5050656;28;20036;-82
2023/07/27 08:40:25;;;;;;;8.85;7.95;;;14.00;99.90;;;;;;5048123;28;20552;-85
2023/07/27 08:42:51;;;;;;;8.93;7.70;;;13.80;99.90;;;;;;5029273;28;20032;-84
2023/07/27 08:45:21;;;;;;;10.80;8.77;;;13.80;99.90;;;;;;5058285;28;20120;-84
2023/07/27 08:47:49;;;;;;;13.43;9.18;;;13.90;99.90;;;;;;5050419;28;20040;-86
2023/07/27 08:50:15;;;;;;;12.98;8.77;;;14.00;99.90;;;;;;5056385;28;20090;-83
2023/07/27 08:52:41;;;;;;;7.57;6.75;;;14.10;99.90;;;;;;5056568;28;20437;-84
2023/07/27 08:55:07;;;;;;;11.65;7.88;;;14.10;99.90;;;;;;5058750;28;20036;-84
2023/07/27 08:57:33;;;;;;;8.68;7.72;;;14.00;99.90;;;;;;5058451;28;20040;-83
2023/07/27 08:59:59;;;;;;;10.20;7.75;;;14.10;99.90;;;;;;5066563;28;20124;-83
2023/07/27 09:02:25;;;;;;;9.85;7.22;;;14.10;99.90;;;;;;5061393;28;20610;-83
2023/07/27 09:04:51;;;;;;;7.38;6.50;;;14.20;99.90;;;;;;5041740;28;20098;-83
2023/07/27 09:07:16;;;;;;;12.27;8.27;;;14.10;99.90;;;;;;5058870;28;20469;-83
2023/07/27 09:09:51;;;;;;;9.90;7.28;;;14.20;99.90;;;;;;5047011;28;20044;-85
2023/07/27 09:12:18;;;;;;;8.73;7.53;;;14.40;99.90;;;;;;5067492;28;20162;-86
2023/07/27 09:14:44;;;;;;;9.43;8.02;;;14.50;99.90;;;;;;5061805;28;20021;-85
2023/07/27 09:17:12;;;;;;;8.25;7.00;;;14.70;99.90;;;;;;5053577;28;20482;-86
2023/07/27 09:19:40;;;;;;;7.63;6.80;;;14.90;99.90;;;;;;5061534;28;20021;-84
2023/07/27 09:22:07;;;;;;;7.55;6.80;;;14.90;99.90;;;;;;5064351;28;20051;-86
2023/07/27 09:24:34;;;;;;;8.52;5.60;;;15.00;99.90;;;;;;5062169;28;20078;-83
2023/07/27 09:27:01;;;;;;;8.07;6.15;;;15.10;99.90;;;;;;5071567;28;20020;-85
2023/07/27 09:29:28;;;;;;;7.40;6.25;;;15.10;99.90;;;;;;5069189;28;20431;-85
2023/07/27 09:31:58;;;;;;;10.40;6.78;;;15.10;99.90;;;;;;5050662;28;20028;-87
2023/07/27 09:34:28;;;;;;;7.35;6.35;;;15.30;99.90;;;;;;5052388;28;20056;-85
2023/07/27 09:37:04;;;;;;;11.05;7.32;;;15.30;99.90;;;;;;5043944;28;20040;-86
2023/07/27 09:39:42;;;;;;;7.85;7.03;;;15.50;99.90;;;;;;5063151;28;20034;-87
2023/07/27 09:42:10;;;;;;;6.10;5.50;;;15.70;99.90;;;;;;5053824;28;20621;-87
2023/07/27 09:44:58;;;;;;;7.78;6.00;;;15.90;99.90;;;;;;5060163;28;20023;-88
2023/07/27 09:47:29;;;;;;;7.90;5.20;;;16.00;99.90;;;;;;5064762;28;20111;-87
2023/07/27 09:49:58;;;;;;;6.72;4.70;;;15.90;99.90;;;;;;5046230;28;20625;-87
2023/07/27 09:52:25;;;;;;;5.45;4.78;;;15.80;99.90;;;;;;5063279;28;20522;-88
2023/07/27 09:54:53;;;;;;;5.65;5.03;;;15.70;99.90;;;;;;5071276;28;20147;-87
2023/07/27 09:57:20;;;;;;;5.00;4.60;;;15.70;99.90;;;;;;5065983;28;20098;-86
2023/07/27 09:59:47;;;;;;;5.50;5.00;;;15.70;99.90;;;;;;5047437;28;20048;-86
2023/07/27 10:02:16;;;;;;;5.45;4.93;;;15.70;99.90;;;;;;5047633;28;20040;-86
2023/07/27 10:04:45;;;;;;;6.70;5.57;;;15.80;99.90;;;;;;5046885;28;20120;-87
2023/07/27 10:07:11;;;;;;;5.93;5.43;;;15.90;99.90;;;;;;5070822;28;20036;-87
2023/07/27 10:09:36;;;;;;;4.93;4.47;;;16.10;99.90;;;;;;5073196;28;20036;-85
2023/07/27 10:12:06;;;;;;;4.85;4.35;;;16.30;99.90;;;;;;5050043;28;20052;-88
2023/07/27 10:14:32;;;;;;;5.65;4.70;;;16.40;99.90;;;;;;5070726;28;20033;-87
2023/07/27 10:17:04;;;;;;;5.00;4.60;;;16.60;99.90;;;;;;5072272;28;20619;-85
2023/07/27 10:19:43;;;;;;;5.38;4.88;;;16.80;99.90;;;;;;5068127;28;20516;-85
2023/07/27 10:22:17;;;;;;;6.18;4.63;;;17.00;99.90;;;;;;5068594;28;20075;-88
2023/07/27 10:24:50;;;;;;;6.95;4.45;;;17.20;99.90;;;;;;5041364;28;20060;-87
2023/07/27 10:27:21;;;;;;;5.32;4.53;;;17.40;99.90;;;;;;5033349;28;20083;-86
2023/07/27 10:29:51;;;;;;;6.55;4.43;;;17.50;99.90;;;;;;5052883;28;20082;-89
2023/07/27 10:32:16;;;;;;;5.30;4.57;;;17.70;99.90;;;;;;5053361;28;20392;-87
2023/07/27 10:35:07;;;;;;;5.90;3.65;;;17.90;99.90;;;;;;5037986;28;20025;-90
2023/07/27 10:38:21;;;;;;;4.43;3.30;;;18.10;99.90;;;;;;5052727;28;20037;-89
2023/07/27 10:42:14;;;;;;;5.28;3.15;;;18.30;99.90;;;;;;5081256;28;20038;-91
2023/07/27 10:44:54;;;;;;;4.25;3.03;;;18.50;99.90;;;;;;5070397;28;20126;-91
2023/07/27 10:48:07;;;;;;;4.63;2.92;;;18.50;99.90;;;;;;5054810;28;20039;-91
2023/07/27 10:50:55;;;;;;;5.47;2.55;;;18.50;99.90;;;;;;5065457;28;20028;-86
2023/07/27 10:57:19;;;;;;;2.70;2.35;;;18.40;99.90;;;;;;5021275;28;20173;-89
2023/07/27 10:59:48;;;;;;;4.57;2.83;;;18.40;99.90;;;;;;5053442;28;20032;-88
2023/07/27 11:02:20;;;;;;;4.03;3.25;;;18.40;99.90;;;;;;5054304;28;20447;-87
2023/07/27 11:04:57;;;;;;;3.53;2.72;;;18.30;99.90;;;;;;5055881;28;20033;-87
2023/07/27 11:07:33;;;;;;;3.63;2.72;;;18.30;99.90;;;;;;5041619;28;20133;-85
2023/07/27 11:10:09;;;;;;;3.15;2.60;;;18.20;99.90;;;;;;5057831;28;20056;-85
2023/07/27 11:13:04;;;;;;;;;;;18.30;99.90;;;;;;5060020;28;20029;-84
2023/07/27 11:15:30;;;;;;;2.60;2.40;;;18.20;99.90;;;;;;5048534;28;19916;-85
2023/07/27 11:18:22;;;;;;;3.33;2.50;;;18.10;99.90;;;;;;5060069;28;20185;-85
2023/07/27 11:20:48;;;;;;;6.45;2.80;;;18.00;99.90;;;;;;5064009;28;20020;-86
2023/07/27 11:23:13;;;;;;;2.88;2.60;;;17.90;99.90;;;;;;5057079;28;20028;-92
2023/07/27 11:25:40;;;;;;;3.55;3.03;;;17.90;99.90;;;;;;5050171;28;20262;-87
2023/07/27 11:28:06;;;;;;;3.88;2.85;;;17.90;99.90;;;;;;5065396;28;20046;-88
2023/07/27 11:30:39;;;;;;;3.25;2.45;;;17.80;99.90;;;;;;5075634;28;20032;-89
2023/07/27 11:33:05;;;;;;;2.67;2.17;;;17.80;99.90;;;;;;5065310;28;20041;-89
2023/07/27 11:35:32;;;;;;;5.00;2.92;;;17.70;99.90;;;;;;5068673;28;20626;-89
2023/07/27 11:38:01;;;;;;;3.35;2.42;;;17.70;99.90;;;;;;5048797;28;20048;-89
2023/07/27 11:40:27;;;;;;;4.65;2.88;;;17.60;99.90;;;;;;5065304;28;20029;-86
2023/07/27 11:42:53;;;;;;;4.00;2.65;;;17.40;99.90;;;;;;5063149;28;20042;-87
2023/07/27 11:45:18;;;;;;;3.13;2.55;;;17.40;99.90;;;;;;5053683;28;20482;-84
2023/07/27 11:47:49;;;;;;;2.60;2.40;;;17.20;99.90;;;;;;5067406;28;20766;-85
2023/07/27 11:50:19;;;;;;;3.13;2.33;;;17.00;99.90;;;;;;5044716;28;20028;-83
2023/07/27 11:52:45;;;;;;;3.20;2.47;;;17.00;99.90;;;;;;5046331;28;20070;-83
2023/07/27 11:55:15;;;;;;;3.90;2.35;;;16.80;99.90;;;;;;5064318;28;20029;-85
2023/07/27 11:57:41;;;;;;;4.03;2.28;;;16.60;99.90;;;;;;5064149;28;20061;-88
2023/07/27 12:00:14;;;;;;;3.33;2.75;;;16.50;99.90;;;;;;5049081;28;20032;-83
2023/07/27 12:02:50;;;;;;;4.80;2.60;;;16.50;99.90;;;;;;5070806;28;20029;-83
2023/07/27 12:05:19;;;;;;;;;;;16.50;99.90;;;;;;5041518;28;20029;-82
2023/07/27 12:07:45;;;;;;;2.90;2.30;;;16.50;99.90;;;;;;5058142;28;19917;-84
2023/07/27 12:10:12;;;;;;;3.53;2.90;;;16.50;99.90;;;;;;5069233;28;20039;-86
2023/07/27 12:12:59;;;;;;;2.97;2.33;;;16.50;99.90;;;;;;5039427;28;20041;-85
2023/07/27 12:15:32;;;;;;;3.58;2.40;;;16.50;99.90;;;;;;5048890;28;20059;-85
2023/07/27 12:18:00;;;;;;;5.82;2.40;;;16.50;99.90;;;;;;5068132;28;20051;-83
2023/07/27 12:20:28;;;;;;;4.68;2.63;;;16.50;99.90;;;;;;5056845;28;20025;-84
2023/07/27 12:22:53;;;;;;;3.45;2.85;;;16.50;99.90;;;;;;5070342;28;20025;-84
2023/07/27 12:25:19;;;;;;;4.35;2.60;;;16.50;99.90;;;;;;5064431;28;20032;-86
2023/07/27 12:27:45;;;;;;;3.38;2.60;;;16.40;99.90;;;;;;5071462;28;20032;-84
2023/07/27 12:30:12;;;;;;;2.55;2.33;;;16.40;99.90;;;;;;5071334;28;20086;-83
2023/07/27 12:32:38;;;;;;;3.63;2.42;;;16.40;99.90;;;;;;5059731;28;20040;-84
2023/07/27 12:35:05;;;;;;;6.00;3.28;;;16.40;99.90;;;;;;5041656;28;20035;-83
2023/07/27 12:37:31;;;;;;;3.67;2.83;;;16.30;99.90;;;;;;5062204;28;20481;-83
2023/07/27 12:40:13;;;;;;;5.63;3.20;;;16.20;99.90;;;;;;5067350;28;20048;-87
2023/07/27 12:42:39;;;;;;;4.32;3.53;;;16.10;99.90;;;;;;5054495;28;20043;-87
2023/07/27 12:45:06;;;;;;;10.65;3.95;;;16.00;99.90;;;;;;5056821;28;20053;-86
2023/07/27 12:47:32;;;;;;;5.03;3.70;;;15.90;99.90;;;;;;5053244;28;20063;-88
2023/07/27 12:49:58;;;;;;;6.07;4.53;;;15.70;99.90;;;;;;5036553;28;20256;-89
2023/07/27 12:52:24;;;;;;;8.88;4.90;;;15.60;99.90;;;;;;5057749;28;20036;-85